createdAt,value
2022-12-31T00:00:01.976Z,20.57
2022-12-31T00:01:02.569Z,20.53
2022-12-31T00:02:01.528Z,15.43
2022-12-31T00:03:02.179Z,15.60
2022-12-31T00:04:02.082Z,18.67
2022-12-31T00:05:02.481Z,15.33
2022-12-31T00:06:11.288Z,15.63
2022-12-31T00:07:01.393Z,11.00
2022-12-31T00:08:02.667Z,11.87
2022-12-31T00:09:03.661Z,13.97
2022-12-31T00:10:01.554Z,13.43
2022-12-31T00:11:01.666Z,12.50
2022-12-31T00:12:01.770Z,10.60
2022-12-31T00:13:01.441Z,12.33
2022-12-31T00:14:02.215Z,11.07
2022-12-31T00:15:01.420Z,12.47
2022-12-31T00:16:11.996Z,13.87
2022-12-31T00:17:01.454Z,12.20
2022-12-31T00:18:01.415Z,12.37
2022-12-31T00:19:03.166Z,9.90
2022-12-31T00:20:01.455Z,12.10
2022-12-31T00:21:04.181Z,11.67
2022-12-31T00:22:02.405Z,11.40
2022-12-31T00:23:01.799Z,13.83
2022-12-31T00:24:03.801Z,12.00
2022-12-31T00:25:01.438Z,14.80
2022-12-31T00:26:02.771Z,12.73
2022-12-31T00:27:01.430Z,13.80
2022-12-31T00:28:01.903Z,13.10
2022-12-31T00:29:03.059Z,13.40
2022-12-31T00:30:04.701Z,12.37
2022-12-31T00:31:12.453Z,13.97
2022-12-31T00:32:01.804Z,12.10
2022-12-31T00:33:02.020Z,14.30
2022-12-31T00:34:01.968Z,13.30
2022-12-31T00:35:02.292Z,12.87
2022-12-31T00:36:06.201Z,12.73
2022-12-31T00:37:01.802Z,12.60
2022-12-31T00:38:01.840Z,13.07
2022-12-31T00:39:04.332Z,11.43
2022-12-31T00:40:01.493Z,13.83
2022-12-31T00:41:01.836Z,13.27
2022-12-31T00:42:01.441Z,13.77
2022-12-31T00:43:01.403Z,12.07
2022-12-31T00:44:02.491Z,13.47
2022-12-31T00:45:01.420Z,14.30
2022-12-31T00:46:03.423Z,12.03
2022-12-31T00:47:01.408Z,12.23
2022-12-31T00:48:01.409Z,13.10
2022-12-31T00:49:01.396Z,11.80
2022-12-31T00:50:01.786Z,12.23
2022-12-31T00:51:03.037Z,12.77
2022-12-31T00:52:01.404Z,13.23
2022-12-31T00:53:01.750Z,13.37
2022-12-31T00:54:01.916Z,12.63
2022-12-31T00:55:02.017Z,11.80
2022-12-31T00:56:03.847Z,14.40
2022-12-31T00:57:01.743Z,15.03
2022-12-31T00:58:01.452Z,14.23
2022-12-31T00:59:01.427Z,13.47
2022-12-31T01:00:01.405Z,13.27
2022-12-31T01:01:08.996Z,12.83
2022-12-31T01:02:01.488Z,13.77
2022-12-31T01:03:02.263Z,13.50
2022-12-31T01:04:03.741Z,12.63
2022-12-31T01:05:01.411Z,15.50
2022-12-31T01:06:01.696Z,14.37
2022-12-31T01:07:01.442Z,14.13
2022-12-31T01:08:02.920Z,13.50
2022-12-31T01:09:01.635Z,13.27
2022-12-31T01:10:01.570Z,11.83
2022-12-31T01:11:02.248Z,14.20
2022-12-31T01:12:01.668Z,14.70
2022-12-31T01:13:01.507Z,14.60
2022-12-31T01:14:04.575Z,15.00
2022-12-31T01:15:01.791Z,15.27
2022-12-31T01:16:07.519Z,13.43
2022-12-31T01:17:01.761Z,13.83
2022-12-31T01:18:01.935Z,14.17
2022-12-31T01:19:04.640Z,16.30
2022-12-31T01:20:01.397Z,15.77
2022-12-31T01:21:02.351Z,16.63
2022-12-31T01:22:01.781Z,16.13
2022-12-31T01:23:01.413Z,14.73
2022-12-31T01:24:01.779Z,15.40
2022-12-31T01:25:01.414Z,17.60
2022-12-31T01:26:03.924Z,16.07
2022-12-31T01:27:01.808Z,15.53
2022-12-31T01:28:02.387Z,15.47
2022-12-31T01:29:02.200Z,17.47
2022-12-31T01:30:01.600Z,15.67
2022-12-31T01:31:03.734Z,15.80
2022-12-31T01:32:02.531Z,15.43
2022-12-31T01:33:01.745Z,16.30
2022-12-31T01:34:02.135Z,15.17
2022-12-31T01:35:02.120Z,15.70
2022-12-31T01:36:02.574Z,16.83
2022-12-31T01:37:01.384Z,14.70
2022-12-31T01:38:01.448Z,16.03
2022-12-31T01:39:04.489Z,15.67
2022-12-31T01:40:01.426Z,15.83
2022-12-31T01:41:02.734Z,16.00
2022-12-31T01:42:01.778Z,15.27
2022-12-31T01:43:01.416Z,17.80
2022-12-31T01:44:12.570Z,17.83
2022-12-31T01:45:01.943Z,15.30
2022-12-31T01:46:01.885Z,17.90
2022-12-31T01:47:03.384Z,16.53
2022-12-31T01:48:01.485Z,16.13
2022-12-31T01:49:09.121Z,15.90
2022-12-31T01:50:09.512Z,17.43
2022-12-31T01:51:01.975Z,16.63
2022-12-31T01:52:09.508Z,16.10
2022-12-31T01:53:04.285Z,16.50
2022-12-31T01:54:06.064Z,17.07
2022-12-31T01:55:07.375Z,17.07
2022-12-31T01:56:02.373Z,16.90
2022-12-31T01:57:02.285Z,16.30
2022-12-31T01:58:08.787Z,17.37
2022-12-31T01:59:05.981Z,15.80
2022-12-31T02:00:03.776Z,16.07
2022-12-31T02:01:02.796Z,16.07
2022-12-31T02:02:02.211Z,16.77
2022-12-31T02:03:02.815Z,16.30
2022-12-31T02:04:07.003Z,16.43
2022-12-31T02:05:06.807Z,17.27
2022-12-31T02:06:08.049Z,16.77
2022-12-31T02:07:03.721Z,16.77
2022-12-31T02:08:02.671Z,15.77
2022-12-31T02:09:01.856Z,17.53
2022-12-31T02:10:02.249Z,18.27
2022-12-31T02:11:01.429Z,17.63
2022-12-31T02:12:02.102Z,17.53
2022-12-31T02:13:02.337Z,15.70
2022-12-31T02:14:06.910Z,17.23
2022-12-31T02:15:01.915Z,15.03
2022-12-31T02:16:11.089Z,15.70
2022-12-31T02:17:08.270Z,17.63
2022-12-31T02:18:10.281Z,16.63
2022-12-31T02:19:14.570Z,17.20
2022-12-31T02:20:19.008Z,16.43
2022-12-31T02:21:20.801Z,17.03
2022-12-31T02:22:06.781Z,16.00
2022-12-31T02:23:17.891Z,17.37
2022-12-31T02:24:20.854Z,16.30
2022-12-31T02:25:18.868Z,17.57
2022-12-31T02:26:20.812Z,17.60
2022-12-31T02:27:08.405Z,18.90
2022-12-31T02:28:19.058Z,18.33
2022-12-31T02:29:20.964Z,20.20
2022-12-31T02:30:06.229Z,19.33
2022-12-31T02:31:08.161Z,19.50
2022-12-31T02:32:07.083Z,19.97
2022-12-31T02:33:12.941Z,20.87
2022-12-31T02:34:07.597Z,19.87
2022-12-31T02:35:08.274Z,18.87
2022-12-31T02:36:06.010Z,18.60
2022-12-31T02:37:06.070Z,19.20
2022-12-31T02:38:07.022Z,18.07
2022-12-31T02:39:03.332Z,17.80
2022-12-31T02:40:05.088Z,19.37
2022-12-31T02:41:01.936Z,19.07
2022-12-31T02:42:02.578Z,19.27
2022-12-31T02:43:01.813Z,19.83
2022-12-31T02:44:12.271Z,19.40
2022-12-31T02:45:02.119Z,18.60
2022-12-31T02:46:12.877Z,18.97
2022-12-31T02:47:14.888Z,18.37
2022-12-31T02:48:14.591Z,19.93
2022-12-31T02:49:11.551Z,18.43
2022-12-31T02:50:12.799Z,17.10
2022-12-31T02:51:17.678Z,19.07
2022-12-31T02:52:10.027Z,18.87
2022-12-31T02:53:13.797Z,18.57
2022-12-31T02:54:17.277Z,19.87
2022-12-31T02:55:11.394Z,18.70
2022-12-31T02:56:08.417Z,19.37
2022-12-31T02:57:09.498Z,18.43
2022-12-31T02:58:09.715Z,17.97
2022-12-31T02:59:05.648Z,18.43
2022-12-31T03:00:05.212Z,19.10
2022-12-31T03:01:01.818Z,18.00
2022-12-31T03:02:09.433Z,19.50
2022-12-31T03:03:04.010Z,17.80
2022-12-31T03:04:02.248Z,19.50
2022-12-31T03:05:03.098Z,18.97
2022-12-31T03:06:03.405Z,19.03
2022-12-31T03:07:04.411Z,18.87
2022-12-31T03:08:02.006Z,19.17
2022-12-31T03:09:02.366Z,18.43
2022-12-31T03:10:01.593Z,17.83
2022-12-31T03:11:01.406Z,17.23
2022-12-31T03:12:03.404Z,17.93
2022-12-31T03:13:02.003Z,18.97
2022-12-31T03:14:01.424Z,18.40
2022-12-31T03:15:01.988Z,19.43
2022-12-31T03:16:01.445Z,19.73
2022-12-31T03:17:01.420Z,18.80
2022-12-31T03:18:04.242Z,18.10
2022-12-31T03:19:01.417Z,18.10
2022-12-31T03:20:01.496Z,19.83
2022-12-31T03:21:01.421Z,18.90
2022-12-31T03:22:01.848Z,18.67
2022-12-31T03:23:05.006Z,20.00
2022-12-31T03:24:01.788Z,18.10
2022-12-31T03:25:05.101Z,19.53
2022-12-31T03:26:03.743Z,19.70
2022-12-31T03:27:01.408Z,19.63
2022-12-31T03:28:04.862Z,19.17
2022-12-31T03:29:02.008Z,18.30
2022-12-31T03:30:01.479Z,18.47
2022-12-31T03:31:02.595Z,19.50
2022-12-31T03:32:01.810Z,18.97
2022-12-31T03:33:03.415Z,19.93
2022-12-31T03:34:01.431Z,18.60
2022-12-31T03:35:01.779Z,18.27
2022-12-31T03:36:04.397Z,19.60
2022-12-31T03:37:01.396Z,18.90
2022-12-31T03:38:03.378Z,19.77
2022-12-31T03:39:01.427Z,19.00
2022-12-31T03:40:01.703Z,19.57
2022-12-31T03:41:02.324Z,18.77
2022-12-31T03:42:01.764Z,19.47
2022-12-31T03:43:01.413Z,19.90
2022-12-31T03:44:01.412Z,19.87
2022-12-31T03:45:01.877Z,20.90
2022-12-31T03:46:01.944Z,19.17
2022-12-31T03:47:01.781Z,20.60
2022-12-31T03:48:02.131Z,19.77
2022-12-31T03:49:01.408Z,19.30
2022-12-31T03:50:01.832Z,19.47
2022-12-31T03:51:01.554Z,19.70
2022-12-31T03:52:01.425Z,19.67
2022-12-31T03:53:01.782Z,19.63
2022-12-31T03:54:02.051Z,19.90
2022-12-31T03:55:02.162Z,20.00
2022-12-31T03:56:01.391Z,19.77
2022-12-31T03:57:01.768Z,19.13
2022-12-31T03:58:01.436Z,20.00
2022-12-31T03:59:01.429Z,19.47
2022-12-31T04:00:02.436Z,19.90
2022-12-31T04:01:01.838Z,20.53
2022-12-31T04:02:01.856Z,19.47
2022-12-31T04:03:01.831Z,20.00
2022-12-31T04:04:02.150Z,19.77
2022-12-31T04:05:01.456Z,19.57
2022-12-31T04:06:01.744Z,19.00
2022-12-31T04:07:01.843Z,19.67
2022-12-31T04:08:01.755Z,19.73
2022-12-31T04:09:01.772Z,20.00
2022-12-31T04:10:02.141Z,20.47
2022-12-31T04:11:01.390Z,18.53
2022-12-31T04:12:01.800Z,19.37
2022-12-31T04:13:01.706Z,18.93
2022-12-31T04:14:01.429Z,19.33
2022-12-31T04:15:02.057Z,19.43
2022-12-31T04:16:01.510Z,20.00
2022-12-31T04:17:01.757Z,18.80
2022-12-31T04:18:01.758Z,19.67
2022-12-31T04:19:01.418Z,19.53
2022-12-31T04:20:01.423Z,18.70
2022-12-31T04:21:01.837Z,18.77
2022-12-31T04:22:01.411Z,18.67
2022-12-31T04:23:01.446Z,20.33
2022-12-31T04:24:02.321Z,19.33
2022-12-31T04:25:01.461Z,19.93
2022-12-31T04:26:01.418Z,18.87
2022-12-31T04:27:07.271Z,19.23
2022-12-31T04:28:01.387Z,19.23
2022-12-31T04:29:02.784Z,18.03
2022-12-31T04:30:01.425Z,18.10
2022-12-31T04:31:01.419Z,18.93
2022-12-31T04:32:01.560Z,19.80
2022-12-31T04:33:01.741Z,20.03
2022-12-31T04:34:01.571Z,19.00
2022-12-31T04:35:02.313Z,20.00
2022-12-31T04:36:01.894Z,19.07
2022-12-31T04:37:02.499Z,19.80
2022-12-31T04:38:01.802Z,19.30
2022-12-31T04:39:01.908Z,19.87
2022-12-31T04:40:05.847Z,19.93
2022-12-31T04:41:02.205Z,19.13
2022-12-31T04:42:01.823Z,18.07
2022-12-31T04:43:01.767Z,18.30
2022-12-31T04:44:02.238Z,19.07
2022-12-31T04:45:02.357Z,18.73
2022-12-31T04:46:02.760Z,16.73
2022-12-31T04:47:01.406Z,18.13
2022-12-31T04:48:01.410Z,19.33
2022-12-31T04:49:01.912Z,18.23
2022-12-31T04:50:01.769Z,18.63
2022-12-31T04:51:01.414Z,18.33
2022-12-31T04:52:01.806Z,18.27
2022-12-31T04:53:01.423Z,18.23
2022-12-31T04:54:02.196Z,19.43
2022-12-31T04:55:01.449Z,19.77
2022-12-31T04:56:03.918Z,19.90
2022-12-31T04:57:01.640Z,18.23
2022-12-31T04:58:01.511Z,18.13
2022-12-31T04:59:01.808Z,19.37
2022-12-31T05:00:01.839Z,17.73
2022-12-31T05:01:01.940Z,17.77
2022-12-31T05:02:02.015Z,18.83
2022-12-31T05:03:01.477Z,18.97
2022-12-31T05:04:01.443Z,18.27
2022-12-31T05:05:01.930Z,17.23
2022-12-31T05:06:02.546Z,17.00
2022-12-31T05:07:01.461Z,17.87
2022-12-31T05:08:01.607Z,18.70
2022-12-31T05:09:01.901Z,16.67
2022-12-31T05:10:01.438Z,16.87
2022-12-31T05:11:01.932Z,18.43
2022-12-31T05:12:01.436Z,17.03
2022-12-31T05:13:01.767Z,17.07
2022-12-31T05:14:01.763Z,17.67
2022-12-31T05:15:01.813Z,16.80
2022-12-31T05:16:02.431Z,17.30
2022-12-31T05:17:01.532Z,17.60
2022-12-31T05:18:02.122Z,18.97
2022-12-31T05:19:01.705Z,17.87
2022-12-31T05:20:01.410Z,17.50
2022-12-31T05:21:02.039Z,17.07
2022-12-31T05:22:01.771Z,18.37
2022-12-31T05:23:02.748Z,19.33
2022-12-31T05:24:01.403Z,19.00
2022-12-31T05:25:01.408Z,18.27
2022-12-31T05:26:01.870Z,17.40
2022-12-31T05:27:01.867Z,17.77
2022-12-31T05:28:01.960Z,18.13
2022-12-31T05:29:01.798Z,17.20
2022-12-31T05:30:02.073Z,18.47
2022-12-31T05:31:01.458Z,19.27
2022-12-31T05:32:01.392Z,17.43
2022-12-31T05:33:01.781Z,15.77
2022-12-31T05:34:01.729Z,17.83
2022-12-31T05:35:01.782Z,18.27
2022-12-31T05:36:02.033Z,18.10
2022-12-31T05:37:01.770Z,18.27
2022-12-31T05:38:02.643Z,17.40
2022-12-31T05:39:01.411Z,18.97
2022-12-31T05:40:02.395Z,19.90
2022-12-31T05:41:03.964Z,18.80
2022-12-31T05:42:01.899Z,17.40
2022-12-31T05:43:01.408Z,16.57
2022-12-31T05:44:01.782Z,18.53
2022-12-31T05:45:01.975Z,18.03
2022-12-31T05:46:02.478Z,18.13
2022-12-31T05:47:01.767Z,19.43
2022-12-31T05:48:02.165Z,17.73
2022-12-31T05:49:01.404Z,17.60
2022-12-31T05:50:01.436Z,17.00
2022-12-31T05:51:01.431Z,18.63
2022-12-31T05:52:01.943Z,16.83
2022-12-31T05:53:01.790Z,16.60
2022-12-31T05:54:01.739Z,18.10
2022-12-31T05:55:02.326Z,18.87
2022-12-31T05:56:01.780Z,17.20
2022-12-31T05:57:02.412Z,18.17
2022-12-31T05:58:01.413Z,17.63
2022-12-31T05:59:01.437Z,18.40
2022-12-31T06:00:01.510Z,17.00
2022-12-31T06:01:01.804Z,17.63
2022-12-31T06:02:01.781Z,17.50
2022-12-31T06:03:01.697Z,17.13
2022-12-31T06:04:02.188Z,17.23
2022-12-31T06:05:01.472Z,18.43
2022-12-31T06:06:01.758Z,17.07
2022-12-31T06:07:01.442Z,15.20
2022-12-31T06:08:01.573Z,16.80
2022-12-31T06:09:02.003Z,17.47
2022-12-31T06:10:01.400Z,18.13
2022-12-31T06:11:01.778Z,17.43
2022-12-31T06:12:01.757Z,17.13
2022-12-31T06:13:01.784Z,16.57
2022-12-31T06:14:02.893Z,16.10
2022-12-31T06:15:01.942Z,16.07
2022-12-31T06:16:04.555Z,15.87
2022-12-31T06:17:01.457Z,18.17
2022-12-31T06:18:01.410Z,17.23
2022-12-31T06:19:02.389Z,16.07
2022-12-31T06:20:03.073Z,16.33
2022-12-31T06:21:02.884Z,17.60
2022-12-31T06:22:01.484Z,17.83
2022-12-31T06:23:01.728Z,16.13
2022-12-31T06:24:01.768Z,15.63
2022-12-31T06:25:01.894Z,17.73
2022-12-31T06:26:02.175Z,18.10
2022-12-31T06:27:01.408Z,18.77
2022-12-31T06:28:01.941Z,15.60
2022-12-31T06:29:01.841Z,16.67
2022-12-31T06:30:01.890Z,17.17
2022-12-31T06:31:03.312Z,15.10
2022-12-31T06:32:01.995Z,17.47
2022-12-31T06:33:01.410Z,17.50
2022-12-31T06:34:01.709Z,15.73
2022-12-31T06:35:01.407Z,16.97
2022-12-31T06:36:03.480Z,17.50
2022-12-31T06:37:01.796Z,16.73
2022-12-31T06:38:01.896Z,16.53
2022-12-31T06:39:01.413Z,16.63
2022-12-31T06:40:01.927Z,18.17
2022-12-31T06:41:02.405Z,16.93
2022-12-31T06:42:02.075Z,16.47
2022-12-31T06:43:02.404Z,15.77
2022-12-31T06:44:01.767Z,16.30
2022-12-31T06:45:01.802Z,16.67
2022-12-31T06:46:02.905Z,16.13
2022-12-31T06:47:01.991Z,15.63
2022-12-31T06:48:01.401Z,16.33
2022-12-31T06:49:01.431Z,15.77
2022-12-31T06:50:01.444Z,15.70
2022-12-31T06:51:04.055Z,16.37
2022-12-31T06:52:01.535Z,15.40
2022-12-31T06:53:01.756Z,14.80
2022-12-31T06:54:01.493Z,17.27
2022-12-31T06:55:01.840Z,16.27
2022-12-31T06:56:04.989Z,15.27
2022-12-31T06:57:01.840Z,15.70
2022-12-31T06:58:02.009Z,15.10
2022-12-31T06:59:02.725Z,16.60
2022-12-31T07:00:03.523Z,14.60
2022-12-31T07:01:12.144Z,15.90
2022-12-31T07:02:10.173Z,16.20
2022-12-31T07:03:14.622Z,15.47
2022-12-31T07:04:18.110Z,16.10
2022-12-31T07:05:18.233Z,15.43
2022-12-31T07:06:08.483Z,16.07
2022-12-31T07:07:07.668Z,14.63
2022-12-31T07:08:15.618Z,15.23
2022-12-31T07:09:10.083Z,14.90
2022-12-31T07:10:10.943Z,15.70
2022-12-31T07:11:10.598Z,15.90
2022-12-31T07:12:09.753Z,16.97
2022-12-31T07:13:17.301Z,15.93
2022-12-31T07:14:14.202Z,15.03
2022-12-31T07:15:09.448Z,14.80
2022-12-31T07:16:16.176Z,15.73
2022-12-31T07:17:12.919Z,16.10
2022-12-31T07:18:07.166Z,15.50
2022-12-31T07:19:15.544Z,15.43
2022-12-31T07:20:09.110Z,15.70
2022-12-31T07:21:01.729Z,15.13
2022-12-31T07:22:02.916Z,15.50
2022-12-31T07:23:02.235Z,15.40
2022-12-31T07:24:02.418Z,14.87
2022-12-31T07:25:02.735Z,14.50
2022-12-31T07:26:10.170Z,14.40
2022-12-31T07:27:15.678Z,15.73
2022-12-31T07:28:17.919Z,16.60
2022-12-31T07:29:11.238Z,16.27
2022-12-31T07:30:05.741Z,14.73
2022-12-31T07:31:11.174Z,15.63
2022-12-31T07:32:10.603Z,14.60
2022-12-31T07:33:19.267Z,15.70
2022-12-31T07:34:09.037Z,17.07
2022-12-31T07:35:10.617Z,15.67
2022-12-31T07:36:10.063Z,14.90
2022-12-31T07:37:07.618Z,15.23
2022-12-31T07:38:11.744Z,17.50
2022-12-31T07:39:07.903Z,15.20
2022-12-31T07:40:08.522Z,16.23
2022-12-31T07:41:10.051Z,15.77
2022-12-31T07:42:08.501Z,15.57
2022-12-31T07:43:11.052Z,16.73
2022-12-31T07:44:06.769Z,16.10
2022-12-31T07:45:12.556Z,15.73
2022-12-31T07:46:12.119Z,16.30
2022-12-31T07:47:10.286Z,15.37
2022-12-31T07:48:02.889Z,15.13
2022-12-31T07:49:02.469Z,16.03
2022-12-31T07:50:01.802Z,14.83
2022-12-31T07:51:02.248Z,16.07
2022-12-31T07:52:01.850Z,15.27
2022-12-31T07:53:02.587Z,16.17
2022-12-31T07:54:01.392Z,15.10
2022-12-31T07:55:01.397Z,16.53
2022-12-31T07:56:08.450Z,17.00
2022-12-31T07:57:01.857Z,15.80
2022-12-31T07:58:16.616Z,17.10
2022-12-31T07:59:13.538Z,16.23
2022-12-31T08:00:07.423Z,15.73
2022-12-31T08:01:03.374Z,15.13
2022-12-31T08:02:06.497Z,17.00
2022-12-31T08:03:13.290Z,15.87
2022-12-31T08:04:08.914Z,16.47
2022-12-31T08:05:12.677Z,16.50
2022-12-31T08:06:10.740Z,15.90
2022-12-31T08:07:11.581Z,16.30
2022-12-31T08:08:19.443Z,16.93
2022-12-31T08:09:09.410Z,14.43
2022-12-31T08:10:13.981Z,15.87
2022-12-31T08:11:13.012Z,16.93
2022-12-31T08:12:02.628Z,16.47
2022-12-31T08:13:07.647Z,15.87
2022-12-31T08:14:02.258Z,16.00
2022-12-31T08:15:02.007Z,18.07
2022-12-31T08:16:02.653Z,16.37
2022-12-31T08:17:01.680Z,16.23
2022-12-31T08:18:01.721Z,14.23
2022-12-31T08:19:01.628Z,16.00
2022-12-31T08:20:02.299Z,16.57
2022-12-31T08:21:09.593Z,16.27
2022-12-31T08:22:14.239Z,15.40
2022-12-31T08:23:19.217Z,15.57
2022-12-31T08:24:14.452Z,17.77
2022-12-31T08:25:12.279Z,16.57
2022-12-31T08:26:12.132Z,14.90
2022-12-31T08:27:07.391Z,16.63
2022-12-31T08:28:13.476Z,16.40
2022-12-31T08:29:16.527Z,16.87
2022-12-31T08:30:07.264Z,16.57
2022-12-31T08:31:08.436Z,18.77
2022-12-31T08:32:09.932Z,16.67
2022-12-31T08:33:10.204Z,15.90
2022-12-31T08:34:13.410Z,15.10
2022-12-31T08:35:13.979Z,16.40
2022-12-31T08:36:10.770Z,14.60
2022-12-31T08:37:10.235Z,17.20
2022-12-31T08:38:14.681Z,16.37
2022-12-31T08:39:11.833Z,15.57
2022-12-31T08:40:14.992Z,17.07
2022-12-31T08:41:13.450Z,18.30
2022-12-31T08:42:09.106Z,16.77
2022-12-31T08:43:18.716Z,17.07
2022-12-31T08:44:13.111Z,16.17
2022-12-31T08:45:13.563Z,16.47
2022-12-31T08:46:05.970Z,17.07
2022-12-31T08:47:11.174Z,16.23
2022-12-31T08:48:12.159Z,17.10
2022-12-31T08:49:02.989Z,15.93
2022-12-31T08:50:01.817Z,15.97
2022-12-31T08:51:01.705Z,17.20
2022-12-31T08:52:03.048Z,17.30
2022-12-31T08:53:02.416Z,17.90
2022-12-31T08:54:01.688Z,17.70
2022-12-31T08:55:01.843Z,16.10
2022-12-31T08:56:09.335Z,16.90
2022-12-31T08:57:15.860Z,16.63
2022-12-31T08:58:17.955Z,16.87
2022-12-31T08:59:15.821Z,17.37
2022-12-31T09:00:07.203Z,17.73
2022-12-31T09:01:04.814Z,17.37
2022-12-31T09:02:20.811Z,17.90
2022-12-31T09:03:15.363Z,17.53
2022-12-31T09:04:16.291Z,17.90
2022-12-31T09:05:14.253Z,17.83
2022-12-31T09:06:10.067Z,16.37
2022-12-31T09:07:03.390Z,16.13
2022-12-31T09:08:12.874Z,17.20
2022-12-31T09:09:11.401Z,16.83
2022-12-31T09:10:13.920Z,19.23
2022-12-31T09:11:09.637Z,17.53
2022-12-31T09:12:09.802Z,17.57
2022-12-31T09:13:12.808Z,16.03
2022-12-31T09:14:16.932Z,18.83
2022-12-31T09:15:12.339Z,16.73
2022-12-31T09:16:12.430Z,16.70
2022-12-31T09:17:10.247Z,17.60
2022-12-31T09:18:02.774Z,17.17
2022-12-31T09:19:02.262Z,17.53
2022-12-31T09:20:01.982Z,17.20
2022-12-31T09:21:01.856Z,16.57
2022-12-31T09:22:02.285Z,17.87
2022-12-31T09:23:03.068Z,16.37
2022-12-31T09:24:07.458Z,15.70
2022-12-31T09:25:02.036Z,18.87
2022-12-31T09:26:18.580Z,17.30
2022-12-31T09:27:12.383Z,19.33
2022-12-31T09:28:13.600Z,17.63
2022-12-31T09:29:09.411Z,19.47
2022-12-31T09:30:04.809Z,20.87
2022-12-31T09:31:07.971Z,18.73
2022-12-31T09:32:13.484Z,19.07
2022-12-31T09:33:09.419Z,21.47
2022-12-31T09:34:11.373Z,17.90
2022-12-31T09:35:10.886Z,19.87
2022-12-31T09:36:06.527Z,15.77
2022-12-31T09:37:13.525Z,19.73
2022-12-31T09:38:11.369Z,17.03
2022-12-31T09:39:10.099Z,18.13
2022-12-31T09:40:19.287Z,16.20
2022-12-31T09:41:12.326Z,17.03
2022-12-31T09:42:20.817Z,18.47
2022-12-31T09:43:20.822Z,16.63
2022-12-31T09:44:20.799Z,15.50
2022-12-31T09:45:19.882Z,15.83
2022-12-31T09:46:20.847Z,15.93
2022-12-31T09:47:20.811Z,17.93
2022-12-31T09:48:20.806Z,16.67
2022-12-31T09:49:20.951Z,16.40
2022-12-31T09:50:21.278Z,14.33
2022-12-31T09:51:13.852Z,16.13
2022-12-31T09:52:13.562Z,15.30
2022-12-31T09:53:19.090Z,16.10
2022-12-31T09:54:17.809Z,15.50
2022-12-31T09:55:20.803Z,15.80
2022-12-31T09:56:09.650Z,15.93
2022-12-31T09:57:20.797Z,14.47
2022-12-31T09:58:11.177Z,15.37
2022-12-31T09:59:09.674Z,15.00
2022-12-31T10:00:09.962Z,13.07
2022-12-31T10:01:13.120Z,14.33
2022-12-31T10:02:19.172Z,14.40
2022-12-31T10:03:20.833Z,15.07
2022-12-31T10:04:18.126Z,14.07
2022-12-31T10:05:20.816Z,11.23
2022-12-31T10:06:17.181Z,12.37
2022-12-31T10:07:13.322Z,13.47
2022-12-31T10:08:12.412Z,13.27
2022-12-31T10:09:20.447Z,12.60
2022-12-31T10:10:15.995Z,14.33
2022-12-31T10:11:09.801Z,13.17
2022-12-31T10:12:15.367Z,11.57
2022-12-31T10:13:19.703Z,11.60
2022-12-31T10:14:17.363Z,12.07
2022-12-31T10:15:20.810Z,12.80
2022-12-31T10:16:17.971Z,13.13
2022-12-31T10:17:13.511Z,12.23
2022-12-31T10:18:15.994Z,11.77
2022-12-31T10:19:20.805Z,11.47
2022-12-31T10:20:19.305Z,12.13
2022-12-31T10:21:17.852Z,10.83
2022-12-31T10:22:13.404Z,11.10
2022-12-31T10:23:20.860Z,10.53
2022-12-31T10:24:20.798Z,11.60
2022-12-31T10:25:20.803Z,9.53
2022-12-31T10:26:12.967Z,10.40
2022-12-31T10:27:17.579Z,12.00
2022-12-31T10:28:12.716Z,12.70
2022-12-31T10:29:20.846Z,11.40
2022-12-31T10:30:14.223Z,10.57
2022-12-31T10:31:13.532Z,11.03
2022-12-31T10:32:15.810Z,10.97
2022-12-31T10:33:13.589Z,10.33
2022-12-31T10:34:12.749Z,11.13
2022-12-31T10:35:13.711Z,10.20
2022-12-31T10:36:08.518Z,10.20
2022-12-31T10:37:08.182Z,8.40
2022-12-31T10:38:13.291Z,9.80
2022-12-31T10:39:17.685Z,9.50
2022-12-31T10:40:17.972Z,9.47
2022-12-31T10:41:20.800Z,9.57
2022-12-31T10:42:20.965Z,9.23
2022-12-31T10:43:20.808Z,8.87
2022-12-31T10:44:20.808Z,9.90
2022-12-31T10:45:20.468Z,9.87
2022-12-31T10:46:23.040Z,9.73
2022-12-31T10:47:20.808Z,10.67
2022-12-31T10:48:20.818Z,10.10
2022-12-31T10:49:20.812Z,10.07
2022-12-31T10:50:20.813Z,10.73
2022-12-31T10:51:20.885Z,9.60
2022-12-31T10:52:20.809Z,9.00
2022-12-31T10:53:21.151Z,8.43
2022-12-31T10:54:18.110Z,9.13
2022-12-31T10:55:20.804Z,8.50
2022-12-31T10:56:20.803Z,8.67
2022-12-31T10:57:20.814Z,9.33
2022-12-31T10:58:20.814Z,7.80
2022-12-31T10:59:20.787Z,9.77
2022-12-31T11:00:11.415Z,8.00
2022-12-31T11:01:10.991Z,8.70
2022-12-31T11:02:20.550Z,8.43
2022-12-31T11:03:27.027Z,8.80
2022-12-31T11:04:20.802Z,8.53
2022-12-31T11:05:20.791Z,8.77
2022-12-31T11:06:20.803Z,8.30
2022-12-31T11:07:20.696Z,8.43
2022-12-31T11:08:17.092Z,7.60
2022-12-31T11:09:20.820Z,9.23
2022-12-31T11:10:19.530Z,8.37
2022-12-31T11:11:18.271Z,9.30
2022-12-31T11:12:09.847Z,8.73
2022-12-31T11:13:20.797Z,8.03
2022-12-31T11:14:20.813Z,8.07
2022-12-31T11:15:17.290Z,7.67
2022-12-31T11:16:20.857Z,8.50
2022-12-31T11:17:16.125Z,11.07
2022-12-31T11:18:11.099Z,8.43
2022-12-31T11:19:13.935Z,8.70
2022-12-31T11:20:14.315Z,11.03
2022-12-31T11:21:16.637Z,9.80
2022-12-31T11:22:20.805Z,10.57
2022-12-31T11:23:14.870Z,9.10
2022-12-31T11:24:13.059Z,6.93
2022-12-31T11:25:14.977Z,7.97
2022-12-31T11:26:14.087Z,9.60
2022-12-31T11:27:16.789Z,7.73
2022-12-31T11:28:20.625Z,6.87
2022-12-31T11:29:19.223Z,7.57
2022-12-31T11:30:14.851Z,7.90
2022-12-31T11:31:16.698Z,10.20
2022-12-31T11:32:13.393Z,9.17
2022-12-31T11:33:20.097Z,8.47
2022-12-31T11:34:14.443Z,8.17
2022-12-31T11:35:19.882Z,7.00
2022-12-31T11:36:16.420Z,7.63
2022-12-31T11:37:19.595Z,7.20
2022-12-31T11:38:16.496Z,8.43
2022-12-31T11:39:23.426Z,7.53
2022-12-31T11:40:20.261Z,9.17
2022-12-31T11:41:06.632Z,8.93
2022-12-31T11:42:11.001Z,8.40
2022-12-31T11:43:10.511Z,7.80
2022-12-31T11:44:15.533Z,6.87
2022-12-31T11:45:13.675Z,8.07
2022-12-31T11:46:15.889Z,7.67
2022-12-31T11:47:15.649Z,7.90
2022-12-31T11:48:31.325Z,6.50
2022-12-31T11:49:15.053Z,6.43
2022-12-31T11:50:20.807Z,7.40
2022-12-31T11:51:20.798Z,7.43
2022-12-31T11:52:21.230Z,9.90
2022-12-31T11:53:20.895Z,8.40
2022-12-31T11:54:20.795Z,7.57
2022-12-31T11:55:20.988Z,8.23
2022-12-31T11:56:15.004Z,8.10
2022-12-31T11:57:12.818Z,7.50
2022-12-31T11:58:12.502Z,7.90
2022-12-31T11:59:06.186Z,9.00
2022-12-31T12:00:12.158Z,7.13
2022-12-31T12:01:11.016Z,8.33
2022-12-31T12:02:20.624Z,7.50
2022-12-31T12:03:03.692Z,7.67
2022-12-31T12:04:02.461Z,7.40
2022-12-31T12:05:10.611Z,7.23
2022-12-31T12:06:01.693Z,7.13
2022-12-31T12:07:01.472Z,7.33
2022-12-31T12:08:02.364Z,7.77
2022-12-31T12:09:06.153Z,6.80
2022-12-31T12:10:06.379Z,7.57
2022-12-31T12:11:06.680Z,7.10
2022-12-31T12:12:04.742Z,9.40
2022-12-31T12:13:11.465Z,25.77
2022-12-31T12:14:18.976Z,8.53
2022-12-31T12:15:07.402Z,8.60
2022-12-31T12:16:05.818Z,8.23
2022-12-31T12:17:05.954Z,9.17
2022-12-31T12:18:07.923Z,10.93
2022-12-31T12:19:04.238Z,10.33
2022-12-31T12:20:04.644Z,10.37
2022-12-31T12:21:07.516Z,12.50
2022-12-31T12:22:10.433Z,13.40
2022-12-31T12:23:13.873Z,9.13
2022-12-31T12:24:04.133Z,9.70
2022-12-31T12:25:04.896Z,10.30
2022-12-31T12:26:01.808Z,8.17
2022-12-31T12:27:01.940Z,8.67
2022-12-31T12:28:16.954Z,9.87
2022-12-31T12:29:08.808Z,10.27
2022-12-31T12:30:10.867Z,8.10
2022-12-31T12:31:04.624Z,8.40
2022-12-31T12:32:04.151Z,8.53
2022-12-31T12:33:02.579Z,8.37
2022-12-31T12:34:03.493Z,15.23
2022-12-31T12:35:13.236Z,10.80
2022-12-31T12:36:11.611Z,9.37
2022-12-31T12:37:02.172Z,9.83
2022-12-31T12:38:04.246Z,9.30
2022-12-31T12:39:04.673Z,8.77
2022-12-31T12:40:05.019Z,9.33
2022-12-31T12:41:04.409Z,9.30
2022-12-31T12:42:06.170Z,10.13
2022-12-31T12:43:02.260Z,10.47
2022-12-31T12:44:03.960Z,9.50
2022-12-31T12:45:04.318Z,8.80
2022-12-31T12:46:05.381Z,8.77
2022-12-31T12:47:04.260Z,8.90
2022-12-31T12:48:08.237Z,8.97
2022-12-31T12:49:02.490Z,9.47
2022-12-31T12:50:02.690Z,9.37
2022-12-31T12:51:20.067Z,9.87
2022-12-31T12:52:14.996Z,9.67
2022-12-31T12:53:19.644Z,8.73
2022-12-31T12:54:14.102Z,9.30
2022-12-31T12:55:15.491Z,8.53
2022-12-31T12:56:11.818Z,10.00